createdAt,value
2023-08-13T00:01:30.688Z,18.30
2023-08-13T00:03:57.528Z,18.28
2023-08-13T00:06:24.475Z,18.29
2023-08-13T00:08:51.099Z,18.28
2023-08-13T00:11:17.845Z,18.27
2023-08-13T00:13:45.131Z,18.21
2023-08-13T00:16:12.222Z,18.16
2023-08-13T00:18:38.822Z,18.16
2023-08-13T00:21:05.642Z,18.13
2023-08-13T00:23:32.623Z,18.12
2023-08-13T00:25:59.256Z,18.13
2023-08-13T00:28:25.837Z,18.11
2023-08-13T00:30:52.768Z,18.07
2023-08-13T00:33:19.699Z,18.03
2023-08-13T00:35:46.764Z,17.96
2023-08-13T00:38:14.400Z,18.00
2023-08-13T00:40:41.023Z,18.02
2023-08-13T00:43:07.939Z,17.92
2023-08-13T00:45:37.195Z,17.87
2023-08-13T00:48:06.705Z,17.90
2023-08-13T00:50:33.517Z,17.92
2023-08-13T00:53:00.185Z,17.92
2023-08-13T00:55:26.871Z,17.96
2023-08-13T00:57:54.085Z,17.94
2023-08-13T01:00:21.481Z,18.04
2023-08-13T01:02:49.577Z,18.11
2023-08-13T01:05:16.280Z,18.14
2023-08-13T01:07:46.137Z,18.15
2023-08-13T01:10:36.440Z,18.13
2023-08-13T01:13:29.800Z,18.07
2023-08-13T01:15:59.712Z,17.96
2023-08-13T01:18:28.088Z,18.00
2023-08-13T01:20:55.040Z,18.00
2023-08-13T01:23:21.930Z,18.01
2023-08-13T01:26:08.282Z,17.95
2023-08-13T01:28:53.883Z,17.95
2023-08-13T01:31:28.368Z,18.01
2023-08-13T01:33:57.389Z,18.00
2023-08-13T01:36:26.747Z,18.01
2023-08-13T01:38:54.815Z,17.93
2023-08-13T01:41:21.446Z,17.95
2023-08-13T01:43:48.058Z,17.93
2023-08-13T01:46:14.918Z,17.91
2023-08-13T01:48:41.471Z,17.81
2023-08-13T01:51:08.011Z,17.79
2023-08-13T01:53:34.875Z,17.82
2023-08-13T01:56:01.833Z,17.79
2023-08-13T01:58:28.637Z,17.68
2023-08-13T02:00:55.618Z,17.68
2023-08-13T02:03:22.274Z,17.74
2023-08-13T02:05:48.925Z,17.65
2023-08-13T02:08:15.629Z,17.67
2023-08-13T02:10:42.225Z,17.63
2023-08-13T02:13:08.860Z,17.49
2023-08-13T02:15:35.596Z,17.58
2023-08-13T02:18:02.390Z,17.64
2023-08-13T02:20:29.093Z,17.68
2023-08-13T02:22:55.981Z,17.64
2023-08-13T02:25:22.526Z,17.62
2023-08-13T02:27:49.522Z,17.63
2023-08-13T02:30:16.437Z,17.63
2023-08-13T02:32:42.994Z,17.58
2023-08-13T02:35:10.750Z,17.53
2023-08-13T02:37:37.405Z,17.57
2023-08-13T02:40:07.815Z,17.56
2023-08-13T02:42:34.827Z,17.53
2023-08-13T02:45:01.398Z,17.42
2023-08-13T02:47:28.335Z,17.46
2023-08-13T02:49:55.292Z,17.33
2023-08-13T02:52:22.274Z,17.38
2023-08-13T02:54:49.257Z,17.36
2023-08-13T02:57:16.150Z,17.29
2023-08-13T02:59:42.846Z,17.29
2023-08-13T03:02:10.079Z,17.27
2023-08-13T03:04:36.727Z,17.16
2023-08-13T03:07:03.432Z,17.30
2023-08-13T03:09:30.098Z,17.30
2023-08-13T03:11:56.678Z,17.10
2023-08-13T03:14:23.570Z,17.17
2023-08-13T03:16:50.194Z,17.13
2023-08-13T03:19:16.777Z,17.04
2023-08-13T03:21:43.349Z,16.86
2023-08-13T03:24:10.258Z,17.06
2023-08-13T03:26:37.064Z,17.06
2023-08-13T03:29:04.234Z,16.98
2023-08-13T03:31:31.207Z,16.95
2023-08-13T03:33:57.865Z,16.88
2023-08-13T03:36:24.450Z,16.82
2023-08-13T03:38:51.395Z,16.75
2023-08-13T03:41:17.893Z,16.64
2023-08-13T03:43:44.455Z,16.73
2023-08-13T03:46:10.988Z,16.70
2023-08-13T03:48:37.563Z,16.71
2023-08-13T03:51:07.324Z,16.76
2023-08-13T03:53:34.141Z,16.73
2023-08-13T03:56:01.019Z,16.65
2023-08-13T03:58:29.911Z,16.63
2023-08-13T04:00:56.871Z,16.67
2023-08-13T04:03:26.170Z,16.68
2023-08-13T04:05:53.936Z,16.67
2023-08-13T04:08:20.800Z,16.70
2023-08-13T04:10:47.766Z,16.73
2023-08-13T04:13:14.652Z,16.69
2023-08-13T04:15:41.601Z,16.76
2023-08-13T04:18:08.357Z,16.79
2023-08-13T04:20:41.441Z,16.85
2023-08-13T04:23:08.209Z,16.90
2023-08-13T04:25:35.288Z,16.92
2023-08-13T04:28:01.942Z,16.99
2023-08-13T04:30:29.094Z,17.05
2023-08-13T04:32:56.816Z,17.13
2023-08-13T04:35:23.968Z,17.25
2023-08-13T04:37:51.101Z,17.22
2023-08-13T04:40:17.993Z,17.27
2023-08-13T04:42:45.001Z,17.24
2023-08-13T04:45:14.237Z,17.23
2023-08-13T04:47:41.517Z,17.30
2023-08-13T04:50:09.954Z,17.36
2023-08-13T04:52:37.103Z,17.48
2023-08-13T04:55:04.550Z,17.44
2023-08-13T04:57:31.293Z,17.54
2023-08-13T04:59:59.649Z,17.61
2023-08-13T05:02:26.919Z,17.69
2023-08-13T05:04:54.184Z,17.74
2023-08-13T05:07:21.283Z,17.79
2023-08-13T05:09:48.234Z,17.84
2023-08-13T05:12:15.092Z,17.96
2023-08-13T05:14:42.011Z,18.05
2023-08-13T05:17:20.053Z,18.17
2023-08-13T05:19:48.304Z,18.14
2023-08-13T05:22:16.262Z,18.22
2023-08-13T05:24:43.720Z,18.35
2023-08-13T05:27:10.587Z,18.34
2023-08-13T05:29:37.337Z,18.52
2023-08-13T05:32:04.142Z,18.53
2023-08-13T05:34:31.059Z,18.72
2023-08-13T05:36:57.823Z,18.84
2023-08-13T05:39:24.541Z,18.97
2023-08-13T05:41:51.200Z,19.04
2023-08-13T05:44:18.106Z,19.06
2023-08-13T05:46:44.884Z,19.16
2023-08-13T05:49:11.856Z,19.32
2023-08-13T05:51:38.452Z,19.43
2023-08-13T05:54:05.573Z,19.53
2023-08-13T05:56:32.411Z,19.54
2023-08-13T05:58:59.353Z,19.75
2023-08-13T06:01:27.380Z,19.87
2023-08-13T06:03:54.352Z,20.09
2023-08-13T06:06:22.209Z,20.18
2023-08-13T06:08:49.852Z,20.27
2023-08-13T06:11:16.467Z,20.36
2023-08-13T06:13:43.185Z,20.45
2023-08-13T06:16:09.884Z,20.54
2023-08-13T06:18:36.487Z,20.73
2023-08-13T06:21:05.193Z,20.84
2023-08-13T06:23:32.356Z,20.87
2023-08-13T06:25:59.774Z,21.08
2023-08-13T06:28:26.619Z,21.19
2023-08-13T06:30:53.315Z,21.27
2023-08-13T06:33:20.931Z,21.35
2023-08-13T06:35:48.519Z,21.57
2023-08-13T06:38:16.453Z,21.69
2023-08-13T06:40:43.593Z,21.77
2023-08-13T06:43:11.757Z,21.94
2023-08-13T06:45:38.946Z,22.06
2023-08-13T06:48:05.912Z,22.14
2023-08-13T06:50:34.134Z,22.24
2023-08-13T06:53:00.838Z,22.39
2023-08-13T06:55:27.943Z,22.50
2023-08-13T06:57:54.947Z,22.63
2023-08-13T07:00:31.395Z,22.77
2023-08-13T07:03:06.009Z,22.92
2023-08-13T07:05:33.077Z,22.99
2023-08-13T07:07:59.800Z,23.13
2023-08-13T07:10:26.568Z,23.27
2023-08-13T07:12:53.179Z,23.38
2023-08-13T07:15:20.173Z,23.53
2023-08-13T07:17:46.888Z,23.62
2023-08-13T07:20:15.513Z,23.74
2023-08-13T07:22:47.175Z,23.84
2023-08-13T07:25:14.564Z,23.98
2023-08-13T07:27:42.175Z,24.08
2023-08-13T07:30:11.180Z,24.16
2023-08-13T07:32:39.353Z,24.27
2023-08-13T07:35:08.113Z,24.41
2023-08-13T07:37:35.619Z,24.51
2023-08-13T07:40:02.651Z,24.56
2023-08-13T07:42:29.214Z,24.70
2023-08-13T07:44:56.174Z,24.89
2023-08-13T07:47:22.902Z,25.03
2023-08-13T07:49:49.586Z,25.06
2023-08-13T07:52:16.976Z,25.16
2023-08-13T07:54:43.794Z,25.29
2023-08-13T07:57:10.505Z,25.44
2023-08-13T07:59:37.595Z,25.52
2023-08-13T08:02:04.961Z,25.59
2023-08-13T08:04:31.829Z,25.69
2023-08-13T08:06:58.725Z,25.80
2023-08-13T08:09:25.444Z,25.90
2023-08-13T08:11:52.057Z,26.03
2023-08-13T08:14:18.793Z,26.16
2023-08-13T08:16:45.762Z,26.27
2023-08-13T08:19:14.408Z,26.47
2023-08-13T08:21:41.085Z,26.64
2023-08-13T08:24:07.929Z,26.72
2023-08-13T08:26:34.451Z,26.74
2023-08-13T08:29:01.066Z,26.84
2023-08-13T08:31:27.943Z,26.94
2023-08-13T08:33:54.850Z,27.11
2023-08-13T08:36:21.406Z,27.31
2023-08-13T08:38:47.921Z,27.43
2023-08-13T08:41:16.333Z,27.60
2023-08-13T08:43:44.133Z,27.72
2023-08-13T08:46:12.564Z,27.90
2023-08-13T08:48:40.528Z,27.94
2023-08-13T08:51:08.493Z,28.02
2023-08-13T08:53:35.485Z,28.13
2023-08-13T08:56:02.099Z,28.24
2023-08-13T08:58:28.967Z,28.24
2023-08-13T09:01:01.523Z,28.43
2023-08-13T09:03:29.377Z,28.47
2023-08-13T09:06:11.719Z,28.66
2023-08-13T09:08:46.243Z,28.77
2023-08-13T09:11:13.088Z,28.66
2023-08-13T09:13:49.640Z,28.88
2023-08-13T09:16:16.867Z,28.78
2023-08-13T09:18:43.729Z,28.68
2023-08-13T09:21:10.607Z,28.78
2023-08-13T09:23:40.190Z,28.81
2023-08-13T09:26:06.902Z,28.85
2023-08-13T09:28:33.740Z,28.99
2023-08-13T09:31:01.442Z,29.09
2023-08-13T09:33:28.719Z,29.26
2023-08-13T09:35:55.696Z,29.23
2023-08-13T09:38:22.574Z,29.35
2023-08-13T09:40:49.412Z,29.52
2023-08-13T09:43:21.211Z,29.67
2023-08-13T09:45:49.246Z,29.88
2023-08-13T09:48:18.369Z,30.15
2023-08-13T09:50:49.766Z,29.97
2023-08-13T09:53:16.861Z,30.20
2023-08-13T09:55:51.560Z,30.46
2023-08-13T09:58:22.771Z,30.66
2023-08-13T10:00:50.551Z,30.78
2023-08-13T10:03:20.919Z,30.96
2023-08-13T10:05:48.442Z,31.10
2023-08-13T10:08:16.285Z,31.35
2023-08-13T10:10:44.060Z,31.18
2023-08-13T10:13:11.234Z,31.23
2023-08-13T10:15:39.703Z,31.28
2023-08-13T10:18:06.767Z,31.43
2023-08-13T10:20:33.419Z,31.55
2023-08-13T10:23:02.687Z,31.70
2023-08-13T10:25:31.388Z,31.83
2023-08-13T10:27:58.158Z,31.84
2023-08-13T10:30:25.339Z,31.88
2023-08-13T10:32:52.213Z,32.02
2023-08-13T10:35:36.146Z,31.92
2023-08-13T10:38:04.212Z,31.90
2023-08-13T10:40:31.826Z,32.02
2023-08-13T10:43:03.786Z,32.20
2023-08-13T10:45:39.241Z,32.49
2023-08-13T10:48:07.481Z,32.61
2023-08-13T10:50:36.511Z,32.62
2023-08-13T10:53:22.706Z,32.23
2023-08-13T10:55:51.190Z,32.22
2023-08-13T10:58:36.439Z,32.27
2023-08-13T11:01:17.851Z,32.27
2023-08-13T11:03:47.415Z,32.34
2023-08-13T11:06:15.414Z,32.35
2023-08-13T11:08:48.638Z,32.65
2023-08-13T11:11:20.310Z,32.87
2023-08-13T11:13:48.642Z,32.97
2023-08-13T11:16:15.705Z,33.15
2023-08-13T11:18:42.695Z,33.17
2023-08-13T11:21:09.663Z,32.77
2023-08-13T11:23:36.856Z,32.72
2023-08-13T11:26:06.884Z,32.85
2023-08-13T11:28:34.773Z,32.88
2023-08-13T11:31:01.510Z,32.97
2023-08-13T11:33:28.288Z,33.14
2023-08-13T11:35:55.522Z,33.32
2023-08-13T11:38:23.111Z,33.36
2023-08-13T11:40:51.033Z,33.06
2023-08-13T11:43:19.915Z,32.87
2023-08-13T11:45:49.517Z,32.82
2023-08-13T11:48:18.763Z,32.66
2023-08-13T11:50:56.263Z,32.64
2023-08-13T11:53:28.558Z,32.82
2023-08-13T11:55:55.368Z,32.75
2023-08-13T11:58:22.044Z,32.64
2023-08-13T12:00:49.610Z,32.54
2023-08-13T12:03:16.978Z,32.51
2023-08-13T12:05:44.452Z,32.82
2023-08-13T12:08:11.354Z,33.02
2023-08-13T12:10:40.123Z,33.06
2023-08-13T12:13:07.606Z,32.57
2023-08-13T12:15:34.266Z,32.51
2023-08-13T12:18:01.344Z,32.61
2023-08-13T12:20:28.867Z,32.62
2023-08-13T12:22:56.051Z,32.89
2023-08-13T12:25:23.951Z,33.07
2023-08-13T12:27:55.235Z,32.97
2023-08-13T12:30:22.551Z,33.04
2023-08-13T12:32:49.890Z,32.93
2023-08-13T12:35:17.010Z,32.80
2023-08-13T12:37:43.937Z,32.62
2023-08-13T12:40:11.321Z,32.75
2023-08-13T12:42:38.715Z,32.93
2023-08-13T12:45:07.698Z,33.22
2023-08-13T12:47:35.720Z,33.35
2023-08-13T12:50:04.208Z,33.42
2023-08-13T12:52:30.887Z,32.97
2023-08-13T12:54:57.530Z,32.70
2023-08-13T12:57:24.509Z,32.62
2023-08-13T12:59:51.166Z,32.69
2023-08-13T13:02:18.192Z,32.53
2023-08-13T13:04:45.156Z,32.22
2023-08-13T13:07:11.787Z,32.26
2023-08-13T13:09:38.550Z,32.14
2023-08-13T13:12:05.407Z,32.05
2023-08-13T13:14:33.169Z,31.88
2023-08-13T13:17:00.259Z,32.02
2023-08-13T13:19:26.980Z,32.08
2023-08-13T13:21:53.869Z,32.19
2023-08-13T13:24:20.490Z,32.25
2023-08-13T13:26:47.357Z,32.30
2023-08-13T13:29:14.419Z,32.22
2023-08-13T13:31:41.284Z,32.30
2023-08-13T13:34:07.818Z,32.14
2023-08-13T13:36:34.410Z,32.15
2023-08-13T13:39:01.072Z,32.14
2023-08-13T13:41:28.461Z,31.94
2023-08-13T13:43:55.993Z,31.96
2023-08-13T13:46:23.114Z,32.09
2023-08-13T13:48:49.635Z,32.15
2023-08-13T13:51:16.601Z,32.18
2023-08-13T13:53:43.442Z,32.23
2023-08-13T13:56:10.302Z,32.12
2023-08-13T13:58:37.232Z,31.98
2023-08-13T14:01:04.155Z,31.84
2023-08-13T14:03:31.120Z,31.93
2023-08-13T14:05:58.000Z,32.01
2023-08-13T14:08:24.696Z,32.00
2023-08-13T14:10:51.728Z,31.90
2023-08-13T14:13:18.511Z,31.90
2023-08-13T14:15:46.146Z,31.82
2023-08-13T14:18:13.210Z,31.79
2023-08-13T14:20:40.141Z,31.58
2023-08-13T14:23:07.141Z,31.53
2023-08-13T14:25:34.175Z,31.65
2023-08-13T14:28:00.773Z,31.76
2023-08-13T14:30:27.699Z,31.75
2023-08-13T14:32:54.434Z,31.67
2023-08-13T14:35:21.127Z,31.59
2023-08-13T14:37:47.892Z,31.51
2023-08-13T14:40:17.656Z,31.59
2023-08-13T14:42:44.903Z,31.53
2023-08-13T14:45:11.511Z,31.54
2023-08-13T14:47:38.184Z,31.54
2023-08-13T14:50:05.942Z,31.50
2023-08-13T14:52:32.625Z,31.49
2023-08-13T14:54:59.528Z,31.48
2023-08-13T14:57:26.549Z,31.32
2023-08-13T14:59:53.186Z,31.16
2023-08-13T15:02:20.630Z,31.27
2023-08-13T15:04:47.755Z,31.28
2023-08-13T15:07:14.881Z,31.27
2023-08-13T15:09:42.042Z,31.32
2023-08-13T15:12:09.434Z,31.31
2023-08-13T15:14:36.371Z,31.36
2023-08-13T15:17:03.155Z,31.17
2023-08-13T15:19:29.718Z,31.25
2023-08-13T15:21:56.268Z,31.19
2023-08-13T15:24:23.143Z,31.21
2023-08-13T15:26:49.687Z,31.05
2023-08-13T15:29:16.240Z,31.07
2023-08-13T15:31:42.802Z,31.13
2023-08-13T15:34:14.233Z,31.13
2023-08-13T15:36:40.859Z,31.10
2023-08-13T15:39:07.500Z,31.16
2023-08-13T15:41:34.048Z,31.18
2023-08-13T15:44:00.821Z,31.17
2023-08-13T15:46:27.832Z,31.15
2023-08-13T15:48:54.522Z,31.07
2023-08-13T15:51:21.464Z,31.02
2023-08-13T15:53:48.140Z,31.09
2023-08-13T15:56:15.137Z,31.15
2023-08-13T15:58:41.821Z,31.15
2023-08-13T16:01:08.890Z,31.21
2023-08-13T16:03:35.943Z,31.21
2023-08-13T16:06:02.532Z,31.19
2023-08-13T16:08:29.190Z,31.07
2023-08-13T16:10:57.970Z,31.04
2023-08-13T16:13:27.306Z,31.03
2023-08-13T16:15:54.673Z,31.05
2023-08-13T16:18:22.061Z,31.11
2023-08-13T16:20:49.108Z,31.11
2023-08-13T16:23:16.015Z,31.11
2023-08-13T16:25:42.614Z,31.10
2023-08-13T16:28:09.541Z,31.03
2023-08-13T16:30:36.569Z,31.05
2023-08-13T16:33:03.848Z,31.02
2023-08-13T16:35:31.037Z,30.92
2023-08-13T16:37:57.636Z,30.90
2023-08-13T16:40:24.198Z,30.80
2023-08-13T16:43:04.368Z,30.80
2023-08-13T16:45:34.952Z,30.72
2023-08-13T16:48:01.773Z,30.68
2023-08-13T16:50:28.457Z,30.73
2023-08-13T16:52:55.340Z,30.64
2023-08-13T16:55:22.291Z,30.63
2023-08-13T16:57:49.254Z,30.56
2023-08-13T17:00:16.207Z,30.50
2023-08-13T17:02:45.202Z,30.42
2023-08-13T17:05:13.811Z,30.36
2023-08-13T17:07:40.708Z,30.27
2023-08-13T17:10:08.963Z,30.15
2023-08-13T17:12:36.200Z,30.01
2023-08-13T17:15:16.643Z,29.91
2023-08-13T17:17:48.980Z,29.74
2023-08-13T17:20:21.415Z,29.58
2023-08-13T17:22:49.226Z,29.41
2023-08-13T17:25:16.114Z,29.29
2023-08-13T17:27:43.067Z,29.13
2023-08-13T17:30:10.279Z,28.98
2023-08-13T17:32:36.889Z,28.83
2023-08-13T17:35:04.141Z,28.57
2023-08-13T17:37:32.389Z,28.47
2023-08-13T17:40:00.549Z,28.35
2023-08-13T17:42:27.534Z,28.13
2023-08-13T17:44:54.139Z,28.09
2023-08-13T17:47:20.918Z,27.99
2023-08-13T17:49:47.496Z,27.91
2023-08-13T17:52:15.474Z,27.76
2023-08-13T17:54:42.452Z,27.64
2023-08-13T17:57:09.245Z,27.54
2023-08-13T17:59:37.073Z,27.41
2023-08-13T18:02:03.822Z,27.27
2023-08-13T18:04:30.835Z,27.16
2023-08-13T18:06:57.741Z,27.01
2023-08-13T18:09:24.376Z,26.93
2023-08-13T18:11:51.463Z,26.84
2023-08-13T18:14:18.291Z,26.79
2023-08-13T18:16:45.359Z,26.64
2023-08-13T18:19:12.334Z,26.48
2023-08-13T18:21:38.940Z,26.36
2023-08-13T18:24:05.879Z,26.26
2023-08-13T18:26:32.776Z,26.13
2023-08-13T18:28:59.295Z,26.05
2023-08-13T18:31:27.474Z,25.88
2023-08-13T18:33:54.449Z,25.78
2023-08-13T18:36:21.012Z,25.68
2023-08-13T18:38:47.664Z,25.62
2023-08-13T18:41:14.689Z,25.52
2023-08-13T18:43:41.485Z,25.40
2023-08-13T18:46:08.270Z,25.29
2023-08-13T18:48:34.885Z,25.17
2023-08-13T18:51:01.971Z,25.08
2023-08-13T18:53:28.840Z,25.01
2023-08-13T18:55:55.811Z,24.95
2023-08-13T18:58:22.520Z,24.84
2023-08-13T19:00:49.526Z,24.79
2023-08-13T19:03:16.540Z,24.70
2023-08-13T19:05:45.126Z,24.65
2023-08-13T19:08:12.130Z,24.53
2023-08-13T19:10:46.321Z,24.46
2023-08-13T19:13:18.068Z,24.36
2023-08-13T19:15:44.879Z,24.31
2023-08-13T19:18:12.028Z,24.26
2023-08-13T19:20:38.747Z,24.11
2023-08-13T19:23:05.340Z,24.13
2023-08-13T19:25:32.051Z,24.13
2023-08-13T19:27:59.006Z,24.02
2023-08-13T19:30:25.838Z,23.99
2023-08-13T19:32:52.874Z,23.97
2023-08-13T19:35:19.838Z,23.92
2023-08-13T19:37:46.472Z,23.85
2023-08-13T19:40:14.209Z,23.82
2023-08-13T19:42:41.126Z,23.79
2023-08-13T19:45:07.902Z,23.74
2023-08-13T19:47:34.603Z,23.71
2023-08-13T19:50:02.630Z,23.71
2023-08-13T19:52:29.811Z,23.64
2023-08-13T19:54:56.430Z,23.53
2023-08-13T19:57:27.065Z,23.45
2023-08-13T19:59:54.251Z,23.41
2023-08-13T20:02:21.059Z,23.37
2023-08-13T20:04:48.183Z,23.30
2023-08-13T20:07:16.104Z,23.29
2023-08-13T20:09:43.043Z,23.24
2023-08-13T20:12:09.677Z,23.10
2023-08-13T20:14:36.227Z,23.09
2023-08-13T20:17:03.165Z,23.03
2023-08-13T20:19:29.793Z,22.96
2023-08-13T20:21:57.871Z,22.92
2023-08-13T20:24:24.574Z,22.90
2023-08-13T20:26:52.091Z,22.83
2023-08-13T20:29:18.822Z,22.81
2023-08-13T20:31:45.559Z,22.79
2023-08-13T20:34:12.371Z,22.71
2023-08-13T20:36:39.835Z,22.65
2023-08-13T20:39:08.651Z,22.56
2023-08-13T20:41:36.906Z,22.59
2023-08-13T20:44:05.405Z,22.52
2023-08-13T20:46:32.991Z,22.51
2023-08-13T20:49:00.039Z,22.46
2023-08-13T20:51:26.734Z,22.39
2023-08-13T20:53:53.433Z,22.38
2023-08-13T20:56:20.166Z,22.35
2023-08-13T20:58:46.733Z,22.35
2023-08-13T21:01:13.706Z,22.31
2023-08-13T21:03:40.364Z,22.28
2023-08-13T21:06:07.110Z,22.25
2023-08-13T21:08:34.104Z,22.20
2023-08-13T21:11:00.990Z,22.12
2023-08-13T21:13:27.900Z,22.07
2023-08-13T21:15:54.885Z,22.02
2023-08-13T21:18:21.852Z,21.96
2023-08-13T21:20:48.440Z,21.96
2023-08-13T21:23:15.095Z,21.75
2023-08-13T21:25:41.709Z,21.82
2023-08-13T21:28:08.354Z,21.78
2023-08-13T21:30:35.283Z,21.74
2023-08-13T21:33:02.414Z,21.69
2023-08-13T21:35:29.420Z,21.66
2023-08-13T21:37:56.122Z,21.61
2023-08-13T21:40:23.316Z,21.56
2023-08-13T21:42:49.948Z,21.50
2023-08-13T21:45:16.720Z,21.52
2023-08-13T21:47:43.889Z,21.53
2023-08-13T21:50:10.752Z,21.55
2023-08-13T21:52:37.761Z,21.48
2023-08-13T21:55:04.784Z,21.48
2023-08-13T21:57:31.784Z,21.45
2023-08-13T21:59:58.468Z,21.39
2023-08-13T22:02:25.055Z,21.40
2023-08-13T22:04:51.713Z,21.36
2023-08-13T22:07:18.723Z,21.41
2023-08-13T22:09:45.274Z,21.32
2023-08-13T22:12:12.161Z,21.30
2023-08-13T22:14:38.894Z,21.25
2023-08-13T22:17:05.544Z,21.28
2023-08-13T22:19:52.740Z,21.27
2023-08-13T22:22:21.031Z,21.23
2023-08-13T22:24:48.342Z,21.16
2023-08-13T22:27:16.627Z,21.11
2023-08-13T22:29:43.565Z,21.05
2023-08-13T22:32:10.635Z,20.92
2023-08-13T22:34:37.291Z,20.85
2023-08-13T22:37:03.970Z,20.71
2023-08-13T22:39:31.035Z,20.80
2023-08-13T22:41:58.408Z,20.64
2023-08-13T22:44:25.192Z,20.64
2023-08-13T22:46:51.849Z,20.61
2023-08-13T22:49:34.989Z,20.60
2023-08-13T22:52:04.077Z,20.53
2023-08-13T22:54:30.818Z,20.46
2023-08-13T22:56:57.432Z,20.38
2023-08-13T22:59:24.045Z,20.40
2023-08-13T23:01:50.749Z,20.39
2023-08-13T23:04:17.521Z,20.39
2023-08-13T23:06:44.151Z,20.34
2023-08-13T23:09:11.280Z,20.41
2023-08-13T23:11:38.540Z,20.38
2023-08-13T23:14:05.583Z,20.41
2023-08-13T23:16:32.503Z,20.29
2023-08-13T23:19:00.110Z,20.29
2023-08-13T23:21:26.867Z,20.28
2023-08-13T23:23:53.403Z,20.22
2023-08-13T23:26:20.113Z,20.14
2023-08-13T23:28:49.808Z,20.15
2023-08-13T23:31:17.316Z,20.04
2023-08-13T23:33:47.254Z,20.07
2023-08-13T23:36:13.778Z,19.91
2023-08-13T23:38:40.334Z,19.90
2023-08-13T23:41:07.233Z,19.92
2023-08-13T23:43:33.811Z,19.87
2023-08-13T23:46:00.587Z,19.91
2023-08-13T23:48:27.489Z,19.83
2023-08-13T23:50:55.937Z,19.78
2023-08-13T23:53:23.286Z,19.79
2023-08-13T23:55:50.208Z,19.79
2023-08-13T23:58:16.830Z,19.77
